createdAt,value
2022-12-12T00:00:05.199Z,0.00
2022-12-12T00:01:05.352Z,0.00
2022-12-12T00:02:05.536Z,0.00
2022-12-12T00:03:05.765Z,0.00
2022-12-12T00:04:05.840Z,0.00
2022-12-12T00:05:06.004Z,0.00
2022-12-12T00:06:06.189Z,0.00
2022-12-12T00:07:06.361Z,0.00
2022-12-12T00:08:06.587Z,0.00
2022-12-12T00:09:06.738Z,0.00
2022-12-12T00:10:06.912Z,0.00
2022-12-12T00:11:07.083Z,0.00
2022-12-12T00:12:07.269Z,0.00
2022-12-12T00:13:07.434Z,0.00
2022-12-12T00:14:07.618Z,0.00
2022-12-12T00:15:07.787Z,0.00
2022-12-12T00:16:08.025Z,0.00
2022-12-12T00:17:08.098Z,0.00
2022-12-12T00:18:08.308Z,0.00
2022-12-12T00:19:08.489Z,0.00
2022-12-12T00:20:08.668Z,0.00
2022-12-12T00:21:08.828Z,0.00
2022-12-12T00:22:09.004Z,0.00
2022-12-12T00:23:09.176Z,0.00
2022-12-12T00:24:09.355Z,0.00
2022-12-12T00:25:09.719Z,0.00
2022-12-12T00:26:09.665Z,0.00
2022-12-12T00:27:09.845Z,0.00
2022-12-12T00:28:10.027Z,0.00
2022-12-12T00:29:10.192Z,0.00
2022-12-12T00:30:10.397Z,0.00
2022-12-12T00:31:10.626Z,0.00
2022-12-12T00:32:10.732Z,0.00
2022-12-12T00:33:10.910Z,0.00
2022-12-12T00:34:11.097Z,0.00
2022-12-12T00:35:11.592Z,0.00
2022-12-12T00:36:11.451Z,0.00
2022-12-12T00:37:11.621Z,0.00
2022-12-12T00:38:11.802Z,0.00
2022-12-12T00:39:18.025Z,0.00
2022-12-12T00:40:13.090Z,0.00
2022-12-12T00:41:12.243Z,0.00
2022-12-12T00:42:12.426Z,0.00
2022-12-12T00:43:12.599Z,0.00
2022-12-12T00:44:12.777Z,0.00
2022-12-12T00:45:13.088Z,0.00
2022-12-12T00:46:13.204Z,0.00
2022-12-12T00:47:13.231Z,0.00
2022-12-12T00:48:13.415Z,0.00
2022-12-12T00:49:13.584Z,0.00
2022-12-12T00:50:13.775Z,0.00
2022-12-12T00:51:13.951Z,0.00
2022-12-12T00:52:14.137Z,0.00
2022-12-12T00:53:14.327Z,0.00
2022-12-12T00:54:14.522Z,0.00
2022-12-12T00:55:14.982Z,0.00
2022-12-12T00:56:14.923Z,0.00
2022-12-12T00:57:15.114Z,0.00
2022-12-12T00:58:15.306Z,0.00
2022-12-12T00:59:15.485Z,0.00
2022-12-12T01:00:15.670Z,0.00
2022-12-12T01:01:15.878Z,0.00
2022-12-12T01:02:16.051Z,0.00
2022-12-12T01:03:16.285Z,0.00
2022-12-12T01:04:16.354Z,0.00
2022-12-12T01:05:16.530Z,0.00
2022-12-12T01:06:16.718Z,0.00
2022-12-12T01:07:16.902Z,0.00
2022-12-12T01:08:17.128Z,0.00
2022-12-12T01:09:17.199Z,0.00
2022-12-12T01:10:17.387Z,0.00
2022-12-12T01:11:17.555Z,0.00
2022-12-12T01:12:17.732Z,0.00
2022-12-12T01:13:17.921Z,0.00
2022-12-12T01:14:18.110Z,0.00
2022-12-12T01:15:18.277Z,0.00
2022-12-12T01:16:18.526Z,0.00
2022-12-12T01:17:18.585Z,0.00
2022-12-12T01:18:18.776Z,0.00
2022-12-12T01:19:18.998Z,0.00
2022-12-12T01:20:19.071Z,0.00
2022-12-12T01:21:19.233Z,0.00
2022-12-12T01:22:19.416Z,0.00
2022-12-12T01:23:19.589Z,0.00
2022-12-12T01:24:19.757Z,0.00
2022-12-12T01:25:19.933Z,0.00
2022-12-12T01:26:20.115Z,0.00
2022-12-12T01:27:20.281Z,0.00
2022-12-12T01:28:20.460Z,0.00
2022-12-12T01:29:20.621Z,0.00
2022-12-12T01:30:20.801Z,0.00
2022-12-12T01:31:21.066Z,0.00
2022-12-12T01:32:21.181Z,0.00
2022-12-12T01:33:21.360Z,0.00
2022-12-12T01:34:21.539Z,0.00
2022-12-12T01:35:21.709Z,0.00
2022-12-12T01:36:21.893Z,0.00
2022-12-12T01:37:22.058Z,0.00
2022-12-12T01:38:22.249Z,0.00
2022-12-12T01:39:22.417Z,0.00
2022-12-12T01:40:22.612Z,0.00
2022-12-12T01:41:22.786Z,0.00
2022-12-12T01:42:22.964Z,0.00
2022-12-12T01:43:23.137Z,0.00
2022-12-12T01:44:23.316Z,0.00
2022-12-12T01:45:23.486Z,0.00
2022-12-12T01:46:23.703Z,0.00
2022-12-12T01:47:23.769Z,0.00
2022-12-12T01:48:23.950Z,0.00
2022-12-12T01:49:24.128Z,0.00
2022-12-12T01:50:24.308Z,0.00
2022-12-12T01:51:24.483Z,0.00
2022-12-12T01:52:24.666Z,0.00
2022-12-12T01:53:24.832Z,0.00
2022-12-12T01:54:25.002Z,0.00
2022-12-12T01:55:25.188Z,0.00
2022-12-12T01:56:25.374Z,0.00
2022-12-12T01:57:25.556Z,0.00
2022-12-12T01:58:25.749Z,0.00
2022-12-12T01:59:25.953Z,0.00
2022-12-12T02:00:26.177Z,0.00
2022-12-12T02:01:26.238Z,0.00
2022-12-12T02:02:26.462Z,0.00
2022-12-12T02:03:26.631Z,0.00
2022-12-12T02:04:26.828Z,0.00
2022-12-12T02:05:27.007Z,0.00
2022-12-12T02:06:27.185Z,0.00
2022-12-12T02:07:27.388Z,0.00
2022-12-12T02:08:27.611Z,0.00
2022-12-12T02:09:27.762Z,0.00
2022-12-12T02:10:27.926Z,0.00
2022-12-12T02:11:28.085Z,0.00
2022-12-12T02:12:28.285Z,0.00
2022-12-12T02:13:28.434Z,0.00
2022-12-12T02:14:28.615Z,0.00
2022-12-12T02:15:28.778Z,0.00
2022-12-12T02:16:29.002Z,0.00
2022-12-12T02:17:29.043Z,0.00
2022-12-12T02:18:29.234Z,0.00
2022-12-12T02:19:29.392Z,0.00
2022-12-12T02:20:29.575Z,0.00
2022-12-12T02:21:29.743Z,0.00
2022-12-12T02:22:29.921Z,0.00
2022-12-12T02:23:30.083Z,0.00
2022-12-12T02:24:30.260Z,0.00
2022-12-12T02:25:30.420Z,0.00
2022-12-12T02:26:30.600Z,0.00
2022-12-12T02:27:30.776Z,0.00
2022-12-12T02:28:30.943Z,0.00
2022-12-12T02:29:31.099Z,0.00
2022-12-12T02:30:31.277Z,0.00
2022-12-12T02:31:31.571Z,0.00
2022-12-12T02:32:31.624Z,0.00
2022-12-12T02:33:31.787Z,0.00
2022-12-12T02:34:31.958Z,0.00
2022-12-12T02:35:32.116Z,0.00
2022-12-12T02:36:32.291Z,0.00
2022-12-12T02:37:32.477Z,0.00
2022-12-12T02:38:32.637Z,0.00
2022-12-12T02:39:32.811Z,0.00
2022-12-12T02:40:32.970Z,0.00
2022-12-12T02:41:33.144Z,0.00
2022-12-12T02:42:33.298Z,0.00
2022-12-12T02:43:33.465Z,0.00
2022-12-12T02:44:33.620Z,0.00
2022-12-12T02:45:33.785Z,0.00
2022-12-12T02:46:34.054Z,0.00
2022-12-12T02:47:34.133Z,0.00
2022-12-12T02:48:34.291Z,0.00
2022-12-12T02:49:34.452Z,0.00
2022-12-12T02:50:34.615Z,0.00
2022-12-12T02:51:34.775Z,0.00
2022-12-12T02:52:34.950Z,0.00
2022-12-12T02:53:35.121Z,0.00
2022-12-12T02:54:35.280Z,0.00
2022-12-12T02:55:36.676Z,0.00
2022-12-12T02:56:35.580Z,0.00
2022-12-12T02:57:35.773Z,0.00
2022-12-12T02:58:35.933Z,0.00
2022-12-12T02:59:36.103Z,0.00
2022-12-12T03:00:36.310Z,0.00
2022-12-12T03:01:36.492Z,0.00
2022-12-12T03:02:36.666Z,0.00
2022-12-12T03:03:36.835Z,0.00
2022-12-12T03:04:37.000Z,0.00
2022-12-12T03:05:37.165Z,0.00
2022-12-12T03:06:40.936Z,0.00
2022-12-12T03:07:37.454Z,0.00
2022-12-12T03:08:37.610Z,0.00
2022-12-12T03:09:37.785Z,0.00
2022-12-12T03:10:37.938Z,0.00
2022-12-12T03:11:38.119Z,0.00
2022-12-12T03:12:38.283Z,0.00
2022-12-12T03:13:38.451Z,0.00
2022-12-12T03:14:38.604Z,0.00
2022-12-12T03:15:38.773Z,0.00
2022-12-12T03:16:38.975Z,0.00
2022-12-12T03:17:39.155Z,0.00
2022-12-12T03:18:39.319Z,0.00
2022-12-12T03:19:39.478Z,0.00
2022-12-12T03:20:39.636Z,0.00
2022-12-12T03:21:39.800Z,0.00
2022-12-12T03:22:40.920Z,0.00
2022-12-12T03:23:40.087Z,0.00
2022-12-12T03:24:40.252Z,0.00
2022-12-12T03:25:40.411Z,0.00
2022-12-12T03:26:40.570Z,0.00
2022-12-12T03:27:40.743Z,0.00
2022-12-12T03:28:40.903Z,0.00
2022-12-12T03:29:41.078Z,0.00
2022-12-12T03:30:41.236Z,0.00
2022-12-12T03:31:41.472Z,0.00
2022-12-12T03:32:41.546Z,0.00
2022-12-12T03:33:41.701Z,0.00
2022-12-12T03:34:41.853Z,0.00
2022-12-12T03:35:42.010Z,0.00
2022-12-12T03:36:42.173Z,0.00
2022-12-12T03:37:42.358Z,0.00
2022-12-12T03:38:42.513Z,0.00
2022-12-12T03:39:42.686Z,0.00
2022-12-12T03:40:42.827Z,0.00
2022-12-12T03:41:42.991Z,0.00
2022-12-12T03:42:43.165Z,0.00
2022-12-12T03:43:43.332Z,0.00
2022-12-12T03:44:43.483Z,0.00
2022-12-12T03:45:43.671Z,0.00
2022-12-12T03:46:43.803Z,0.00
2022-12-12T03:47:43.990Z,0.00
2022-12-12T03:48:44.155Z,0.00
2022-12-12T03:49:44.324Z,0.00
2022-12-12T03:50:44.476Z,0.00
2022-12-12T03:51:44.650Z,0.00
2022-12-12T03:52:44.824Z,0.00
2022-12-12T03:53:44.987Z,0.00
2022-12-12T03:54:45.143Z,0.00
2022-12-12T03:55:45.307Z,0.00
2022-12-12T03:56:45.472Z,0.00
2022-12-12T03:57:45.664Z,0.00
2022-12-12T03:58:45.829Z,0.00
2022-12-12T03:59:46.001Z,0.00
2022-12-12T04:00:46.185Z,0.00
2022-12-12T04:01:46.335Z,0.00
2022-12-12T04:02:46.504Z,0.00
2022-12-12T04:03:53.699Z,0.00
2022-12-12T04:04:46.809Z,0.00
2022-12-12T04:05:46.983Z,0.00
2022-12-12T04:06:47.149Z,0.00
2022-12-12T04:07:47.363Z,0.00
2022-12-12T04:08:47.496Z,0.00
2022-12-12T04:09:47.690Z,0.00
2022-12-12T04:10:47.827Z,0.00
2022-12-12T04:11:47.995Z,0.00
2022-12-12T04:12:48.170Z,0.00
2022-12-12T04:13:48.386Z,0.00
2022-12-12T04:14:48.546Z,0.00
2022-12-12T04:15:48.733Z,0.00
2022-12-12T04:16:48.926Z,0.00
2022-12-12T04:17:49.076Z,0.00
2022-12-12T04:18:49.242Z,0.00
2022-12-12T04:19:49.458Z,0.00
2022-12-12T04:20:49.588Z,0.00
2022-12-12T04:21:49.769Z,0.00
2022-12-12T04:22:49.943Z,0.00
2022-12-12T04:23:50.167Z,0.00
2022-12-12T04:24:50.192Z,0.00
2022-12-12T04:25:50.351Z,0.00
2022-12-12T04:26:50.505Z,0.00
2022-12-12T04:27:50.688Z,0.00
2022-12-12T04:28:50.841Z,0.00
2022-12-12T04:29:51.009Z,0.00
2022-12-12T04:30:51.223Z,0.00
2022-12-12T04:31:51.362Z,0.00
2022-12-12T04:32:51.380Z,0.00
2022-12-12T04:33:51.700Z,0.00
2022-12-12T04:34:51.638Z,0.00
2022-12-12T04:35:51.822Z,0.00
2022-12-12T04:36:51.979Z,0.00
2022-12-12T04:37:52.167Z,0.00
2022-12-12T04:38:52.325Z,0.00
2022-12-12T04:39:52.718Z,0.00
2022-12-12T04:40:52.625Z,0.00
2022-12-12T04:41:52.803Z,0.00
2022-12-12T04:42:52.972Z,0.00
2022-12-12T04:43:53.143Z,0.00
2022-12-12T04:44:53.295Z,0.00
2022-12-12T04:45:53.563Z,0.00
2022-12-12T04:46:53.593Z,0.00
2022-12-12T04:47:53.827Z,0.00
2022-12-12T04:48:54.006Z,0.00
2022-12-12T04:49:54.062Z,0.00
2022-12-12T04:50:54.235Z,0.00
2022-12-12T04:51:54.409Z,0.00
2022-12-12T04:52:54.563Z,0.00
2022-12-12T04:53:54.734Z,0.00
2022-12-12T04:54:54.904Z,0.00
2022-12-12T04:55:55.068Z,0.00
2022-12-12T04:56:55.232Z,0.00
2022-12-12T04:57:55.441Z,0.00
2022-12-12T04:58:55.492Z,0.00
2022-12-12T04:59:55.674Z,0.00
2022-12-12T05:00:55.883Z,0.00
2022-12-12T05:01:56.029Z,0.00
2022-12-12T05:02:56.198Z,0.00
2022-12-12T05:03:56.374Z,0.00
2022-12-12T05:04:56.532Z,0.00
2022-12-12T05:05:56.727Z,0.00
2022-12-12T05:06:56.889Z,0.00
2022-12-12T05:07:57.137Z,0.00
2022-12-12T05:08:57.151Z,0.00
2022-12-12T05:09:57.337Z,0.00
2022-12-12T05:10:57.485Z,0.00
2022-12-12T05:11:57.650Z,0.00
2022-12-12T05:12:57.814Z,0.00
2022-12-12T05:13:57.974Z,0.00
2022-12-12T05:14:58.124Z,0.00
2022-12-12T05:15:58.332Z,0.00
2022-12-12T05:16:58.441Z,0.00
2022-12-12T05:17:58.487Z,0.00
2022-12-12T05:18:58.648Z,0.00
2022-12-12T05:19:58.813Z,0.00
2022-12-12T05:20:58.967Z,0.00
2022-12-12T05:21:59.125Z,0.00
2022-12-12T05:22:59.300Z,0.00
2022-12-12T05:23:59.509Z,0.00
2022-12-12T05:24:59.594Z,0.00
2022-12-12T05:25:59.771Z,0.00
2022-12-12T05:26:59.938Z,0.00
2022-12-12T05:28:00.109Z,0.00
2022-12-12T05:29:06.744Z,0.00
2022-12-12T05:30:01.732Z,0.00
2022-12-12T05:31:00.711Z,0.00
2022-12-12T05:32:00.898Z,0.00
2022-12-12T05:33:01.048Z,0.00
2022-12-12T05:34:02.124Z,0.00
2022-12-12T05:35:01.390Z,0.00
2022-12-12T05:36:01.573Z,0.00
2022-12-12T05:37:02.163Z,0.00
2022-12-12T05:38:01.851Z,0.00
2022-12-12T05:39:02.013Z,0.00
2022-12-12T05:40:02.171Z,0.00
2022-12-12T05:41:02.355Z,0.00
2022-12-12T05:42:02.524Z,0.00
2022-12-12T05:43:02.710Z,0.00
2022-12-12T05:44:02.890Z,0.00
2022-12-12T05:45:03.042Z,0.00
2022-12-12T05:46:03.255Z,0.00
2022-12-12T05:47:03.436Z,0.00
2022-12-12T05:48:03.612Z,0.00
2022-12-12T05:49:03.767Z,0.00
2022-12-12T05:50:03.932Z,0.00
2022-12-12T05:51:04.088Z,0.00
2022-12-12T05:52:04.259Z,0.00
2022-12-12T05:53:04.422Z,0.00
2022-12-12T05:54:04.599Z,0.00
2022-12-12T05:55:04.766Z,0.00
2022-12-12T05:56:04.950Z,0.00
2022-12-12T05:57:05.108Z,0.00
2022-12-12T05:58:05.298Z,0.00
2022-12-12T05:59:05.457Z,0.00
2022-12-12T06:00:05.678Z,0.00
2022-12-12T06:01:05.827Z,0.00
2022-12-12T06:02:05.920Z,0.00
2022-12-12T06:03:06.076Z,0.00
2022-12-12T06:04:06.321Z,0.00
2022-12-12T06:05:06.383Z,0.00
2022-12-12T06:06:06.557Z,0.00
2022-12-12T06:07:06.717Z,0.00
2022-12-12T06:08:06.961Z,0.00
2022-12-12T06:09:07.058Z,0.00
2022-12-12T06:10:07.259Z,0.00
2022-12-12T06:11:07.454Z,0.00
2022-12-12T06:12:07.624Z,0.00
2022-12-12T06:13:07.802Z,0.00
2022-12-12T06:14:07.999Z,0.00
2022-12-12T06:15:08.177Z,0.00
2022-12-12T06:16:08.457Z,0.00
2022-12-12T06:17:08.494Z,0.00
2022-12-12T06:18:08.593Z,0.00
2022-12-12T06:19:08.650Z,0.00
2022-12-12T06:20:08.838Z,0.00
2022-12-12T06:21:09.025Z,0.00
2022-12-12T06:22:09.208Z,0.00
2022-12-12T06:23:09.545Z,0.00
2022-12-12T06:24:09.508Z,0.00
2022-12-12T06:25:09.713Z,0.00
2022-12-12T06:26:09.809Z,0.00
2022-12-12T06:27:09.880Z,0.00
2022-12-12T06:28:10.111Z,0.00
2022-12-12T06:29:10.188Z,0.00
2022-12-12T06:30:10.453Z,0.00
2022-12-12T06:31:12.026Z,0.00
2022-12-12T06:32:10.707Z,0.00
2022-12-12T06:33:10.846Z,0.00
2022-12-12T06:34:10.948Z,0.00
2022-12-12T06:35:11.323Z,0.00
2022-12-12T06:36:11.171Z,0.00
2022-12-12T06:37:17.039Z,0.00
2022-12-12T06:38:12.480Z,4.00
2022-12-12T06:39:11.555Z,4.00
2022-12-12T06:40:11.756Z,0.00
2022-12-12T06:41:11.951Z,0.00
2022-12-12T06:42:12.148Z,4.00
2022-12-12T06:43:12.256Z,4.00
2022-12-12T06:44:12.374Z,4.00
2022-12-12T06:45:12.828Z,4.00
2022-12-12T06:46:12.793Z,4.00
2022-12-12T06:47:12.780Z,4.00
2022-12-12T06:48:12.961Z,4.00
2022-12-12T06:49:13.130Z,4.00
2022-12-12T06:50:13.327Z,8.00
2022-12-12T06:51:13.491Z,12.00
2022-12-12T06:52:13.691Z,8.00
2022-12-12T06:53:13.920Z,12.00
2022-12-12T06:54:13.870Z,12.00
2022-12-12T06:55:14.418Z,12.00
2022-12-12T06:56:14.178Z,16.00
2022-12-12T06:57:14.354Z,16.00
2022-12-12T06:58:14.618Z,20.00
2022-12-12T06:59:14.650Z,16.00
2022-12-12T07:00:14.807Z,20.00
2022-12-12T07:01:15.076Z,20.00
2022-12-12T07:02:15.246Z,28.00
2022-12-12T07:03:15.344Z,32.00
2022-12-12T07:04:15.429Z,36.00
2022-12-12T07:05:15.793Z,44.00
2022-12-12T07:06:15.736Z,44.00
2022-12-12T07:07:15.906Z,44.00
2022-12-12T07:08:16.268Z,44.00
2022-12-12T07:09:16.311Z,48.00
2022-12-12T07:10:21.067Z,52.00
2022-12-12T07:11:17.501Z,52.00
2022-12-12T07:12:16.647Z,68.00
2022-12-12T07:13:16.872Z,76.00
2022-12-12T07:14:16.924Z,96.00
2022-12-12T07:15:17.107Z,92.00
2022-12-12T07:16:17.340Z,84.00
2022-12-12T07:17:17.411Z,88.00
2022-12-12T07:18:17.601Z,96.00
2022-12-12T07:19:17.773Z,104.00
2022-12-12T07:20:17.983Z,104.00
2022-12-12T07:21:18.165Z,116.00
2022-12-12T07:22:18.322Z,124.00
2022-12-12T07:23:18.517Z,128.00
2022-12-12T07:24:18.684Z,136.00
2022-12-12T07:25:18.906Z,132.00
2022-12-12T07:26:19.235Z,132.00
2022-12-12T07:27:21.758Z,144.00
2022-12-12T07:28:19.209Z,172.00
2022-12-12T07:29:19.517Z,192.00
2022-12-12T07:30:19.623Z,172.00
2022-12-12T07:31:19.785Z,172.00
2022-12-12T07:32:19.796Z,196.00
2022-12-12T07:33:20.063Z,204.00
2022-12-12T07:34:20.277Z,200.00
2022-12-12T07:35:20.419Z,200.00
2022-12-12T07:36:20.427Z,248.00
2022-12-12T07:37:20.537Z,264.00
2022-12-12T07:38:20.646Z,244.00
2022-12-12T07:39:21.286Z,248.00
2022-12-12T07:40:21.635Z,232.00
2022-12-12T07:41:21.070Z,240.00
2022-12-12T07:42:21.153Z,256.00
2022-12-12T07:43:21.371Z,276.00
2022-12-12T07:44:21.443Z,268.00
2022-12-12T07:45:22.111Z,256.00
2022-12-12T07:46:21.791Z,292.00
2022-12-12T07:47:21.882Z,300.00
2022-12-12T07:48:22.072Z,356.00
2022-12-12T07:49:22.300Z,384.00
2022-12-12T07:50:22.379Z,392.00
2022-12-12T07:51:22.617Z,348.00
2022-12-12T07:52:22.711Z,432.00
2022-12-12T07:53:22.847Z,468.00
2022-12-12T07:54:22.968Z,524.00
2022-12-12T07:55:23.049Z,656.00
2022-12-12T07:56:23.235Z,736.00
2022-12-12T07:57:23.589Z,704.00
2022-12-12T07:58:23.832Z,808.00
2022-12-12T07:59:23.689Z,832.00
2022-12-12T08:00:23.858Z,816.00
2022-12-12T08:01:24.288Z,748.00
2022-12-12T08:02:24.199Z,772.00
2022-12-12T08:03:24.685Z,796.00
2022-12-12T08:04:24.571Z,752.00
2022-12-12T08:05:24.644Z,792.00
2022-12-12T08:06:24.803Z,748.00
2022-12-12T08:07:25.510Z,652.00
2022-12-12T08:08:25.182Z,664.00
2022-12-12T08:09:26.083Z,636.00
2022-12-12T08:10:25.372Z,580.00
2022-12-12T08:11:25.563Z,628.00
2022-12-12T08:12:25.754Z,596.00
2022-12-12T08:13:25.909Z,640.00
2022-12-12T08:14:26.057Z,712.00
2022-12-12T08:15:26.149Z,800.00
2022-12-12T08:16:26.263Z,772.00
2022-12-12T08:17:26.349Z,776.00
2022-12-12T08:18:26.548Z,700.00
2022-12-12T08:19:26.839Z,672.00
2022-12-12T08:20:26.946Z,716.00
2022-12-12T08:21:27.241Z,696.00
2022-12-12T08:22:27.219Z,720.00
2022-12-12T08:23:27.430Z,792.00
2022-12-12T08:24:27.663Z,860.00
2022-12-12T08:25:27.827Z,876.00
2022-12-12T08:26:27.907Z,940.00
2022-12-12T08:27:28.077Z,924.00
2022-12-12T08:28:28.311Z,924.00
2022-12-12T08:29:28.445Z,1008.00
2022-12-12T08:30:28.501Z,1116.00
2022-12-12T08:31:28.714Z,1208.00
2022-12-12T08:32:28.827Z,1244.00
2022-12-12T08:33:29.073Z,1488.00
2022-12-12T08:34:29.135Z,1300.00
2022-12-12T08:35:29.312Z,1156.00
2022-12-12T08:36:29.484Z,1508.00
2022-12-12T08:37:29.724Z,1468.00
2022-12-12T08:38:29.856Z,1384.00
2022-12-12T08:39:29.938Z,1332.00
2022-12-12T08:40:30.101Z,1516.00
2022-12-12T08:41:30.307Z,1612.00
2022-12-12T08:42:30.461Z,1764.00
2022-12-12T08:43:30.581Z,1740.00
2022-12-12T08:44:30.659Z,1808.00
2022-12-12T08:45:30.751Z,1780.00
2022-12-12T08:46:30.983Z,1824.00
2022-12-12T08:47:31.040Z,2024.00
2022-12-12T08:48:31.269Z,1776.00
2022-12-12T08:49:31.333Z,1940.00
2022-12-12T08:50:31.496Z,1832.00
2022-12-12T08:51:31.728Z,1792.00
2022-12-12T08:52:31.805Z,1880.00
2022-12-12T08:53:31.998Z,2240.00
2022-12-12T08:54:32.120Z,2228.00
2022-12-12T08:55:32.213Z,1964.00
2022-12-12T08:56:32.316Z,1964.00
2022-12-12T08:57:32.397Z,1992.00
2022-12-12T08:58:32.629Z,2180.00
2022-12-12T08:59:32.684Z,2440.00
2022-12-12T09:00:32.900Z,2320.00
2022-12-12T09:01:33.048Z,2796.00
2022-12-12T09:02:33.237Z,2472.00
2022-12-12T09:03:33.274Z,2572.00
2022-12-12T09:04:33.446Z,2680.00
2022-12-12T09:05:33.602Z,3044.00
2022-12-12T09:06:33.770Z,2792.00
2022-12-12T09:07:33.932Z,2708.00
2022-12-12T09:08:34.196Z,3084.00
2022-12-12T09:09:34.316Z,3268.00
2022-12-12T09:10:34.348Z,3128.00
2022-12-12T09:11:34.518Z,2848.00
2022-12-12T09:12:41.239Z,2700.00
2022-12-12T09:13:35.889Z,2592.00
2022-12-12T09:14:34.942Z,2416.00
2022-12-12T09:15:35.105Z,2536.00
2022-12-12T09:16:35.331Z,2644.00
2022-12-12T09:17:35.513Z,2376.00
2022-12-12T09:18:35.716Z,2724.00
2022-12-12T09:19:35.819Z,2288.00
2022-12-12T09:20:35.887Z,2468.00
2022-12-12T09:21:36.078Z,2884.00
2022-12-12T09:22:36.259Z,3180.00
2022-12-12T09:23:36.446Z,3188.00
2022-12-12T09:24:36.618Z,3164.00
2022-12-12T09:25:41.284Z,3772.00
2022-12-12T09:26:37.907Z,3828.00
2022-12-12T09:27:37.097Z,3820.00
2022-12-12T09:28:37.185Z,4088.00
2022-12-12T09:29:37.301Z,4272.00
2022-12-12T09:30:37.371Z,4380.00
2022-12-12T09:31:37.624Z,4244.00
2022-12-12T09:32:37.840Z,4464.00
2022-12-12T09:33:37.885Z,4752.00
2022-12-12T09:34:38.063Z,4696.00
2022-12-12T09:35:38.265Z,4564.00
2022-12-12T09:36:38.311Z,4820.00
2022-12-12T09:37:38.583Z,5132.00
2022-12-12T09:38:38.672Z,5796.00
2022-12-12T09:39:38.831Z,5940.00
2022-12-12T09:40:38.971Z,6072.00
2022-12-12T09:41:39.131Z,5900.00
2022-12-12T09:42:39.275Z,5904.00
2022-12-12T09:43:39.440Z,6104.00
2022-12-12T09:44:39.583Z,6424.00
2022-12-12T09:45:39.807Z,7160.00
2022-12-12T09:46:39.897Z,10092.00
2022-12-12T09:47:40.091Z,9424.00
2022-12-12T09:48:40.203Z,8272.00
2022-12-12T09:49:43.695Z,7036.00
2022-12-12T09:50:40.421Z,7900.00
2022-12-12T09:51:40.580Z,6784.00
2022-12-12T09:52:40.719Z,6656.00
2022-12-12T09:53:40.920Z,6260.00
2022-12-12T09:54:40.955Z,6028.00
2022-12-12T09:55:41.175Z,6124.00
2022-12-12T09:56:41.157Z,7180.00
2022-12-12T09:57:41.269Z,7208.00
2022-12-12T09:58:47.295Z,9620.00
2022-12-12T09:59:42.563Z,7792.00
2022-12-12T10:00:41.713Z,6656.00
2022-12-12T10:01:41.903Z,6420.00
2022-12-12T10:02:41.903Z,6208.00
2022-12-12T10:03:42.024Z,6244.00
2022-12-12T10:04:50.995Z,7472.00
2022-12-12T10:05:42.224Z,10040.00
2022-12-12T10:06:42.309Z,7392.00
2022-12-12T10:07:42.421Z,6052.00
2022-12-12T10:08:42.501Z,7840.00
2022-12-12T10:09:42.581Z,11212.00
2022-12-12T10:10:42.673Z,9960.00
2022-12-12T10:11:42.733Z,8752.00
2022-12-12T10:12:42.793Z,9160.00
2022-12-12T10:13:42.884Z,6772.00
2022-12-12T10:14:42.930Z,12500.00
2022-12-12T10:15:43.091Z,6220.00
2022-12-12T10:16:43.262Z,13440.00
2022-12-12T10:17:43.306Z,12832.00
2022-12-12T10:18:43.481Z,11404.00
2022-12-12T10:19:43.510Z,6728.00
2022-12-12T10:20:43.635Z,6188.00
2022-12-12T10:21:43.760Z,5336.00
2022-12-12T10:22:43.880Z,12160.00
2022-12-12T10:23:44.030Z,11128.00
2022-12-12T10:24:44.142Z,11556.00
2022-12-12T10:25:44.269Z,10840.00
2022-12-12T10:26:44.378Z,10576.00
2022-12-12T10:27:44.497Z,10160.00
2022-12-12T10:28:44.616Z,7108.00
2022-12-12T10:29:44.744Z,10144.00
2022-12-12T10:30:44.858Z,11684.00
2022-12-12T10:31:45.026Z,11908.00
2022-12-12T10:32:45.053Z,12280.00
2022-12-12T10:33:45.188Z,12264.00
2022-12-12T10:34:45.288Z,12592.00
2022-12-12T10:35:45.387Z,12928.00
2022-12-12T10:36:45.474Z,11452.00
2022-12-12T10:37:45.579Z,9292.00
2022-12-12T10:38:45.673Z,13216.00
2022-12-12T10:39:45.757Z,13152.00
2022-12-12T10:40:45.833Z,12348.00
2022-12-12T10:41:45.913Z,13696.00
2022-12-12T10:42:45.991Z,12372.00
2022-12-12T10:43:46.081Z,10504.00
2022-12-12T10:44:47.498Z,9060.00
2022-12-12T10:45:46.229Z,12376.00
2022-12-12T10:46:46.785Z,12236.00
2022-12-12T10:47:46.375Z,13248.00
2022-12-12T10:48:46.455Z,10960.00
2022-12-12T10:49:46.523Z,14016.00
2022-12-12T10:50:46.586Z,8992.00
2022-12-12T10:51:46.647Z,14336.00
2022-12-12T10:52:46.713Z,11460.00
2022-12-12T10:53:46.788Z,15040.00
2022-12-12T10:54:46.843Z,15872.00
2022-12-12T10:55:46.922Z,11308.00
2022-12-12T10:56:46.976Z,14752.00
2022-12-12T10:57:47.052Z,14656.00
2022-12-12T10:58:47.116Z,14496.00
2022-12-12T10:59:47.213Z,14240.00
2022-12-12T11:00:47.318Z,9744.00
2022-12-12T11:02:09.625Z,6784.00
2022-12-12T11:02:48.506Z,6844.00
2022-12-12T11:03:47.491Z,6556.00
2022-12-12T11:04:47.551Z,11024.00
2022-12-12T11:05:47.619Z,6564.00
2022-12-12T11:06:47.690Z,5532.00
2022-12-12T11:07:47.837Z,6992.00
2022-12-12T11:08:47.818Z,6848.00
2022-12-12T11:09:47.880Z,15008.00
2022-12-12T11:10:47.951Z,15296.00
2022-12-12T11:11:48.027Z,14624.00
2022-12-12T11:12:48.197Z,10024.00
2022-12-12T11:13:48.183Z,11284.00
2022-12-12T11:14:48.256Z,15360.00
2022-12-12T11:15:48.350Z,15552.00
2022-12-12T11:16:48.507Z,14016.00
2022-12-12T11:17:48.464Z,13408.00
2022-12-12T11:18:48.563Z,11016.00
2022-12-12T11:19:48.626Z,13120.00
2022-12-12T11:20:48.641Z,12084.00
2022-12-12T11:21:48.708Z,12120.00
2022-12-12T11:22:48.780Z,13472.00
2022-12-12T11:23:48.858Z,11852.00
2022-12-12T11:24:48.911Z,11056.00
2022-12-12T11:25:48.967Z,9972.00
2022-12-12T11:26:49.053Z,9100.00
2022-12-12T11:27:49.128Z,7236.00
2022-12-12T11:28:49.218Z,7000.00
2022-12-12T11:29:49.385Z,7460.00
2022-12-12T11:30:49.366Z,9040.00
2022-12-12T11:31:49.472Z,8240.00
2022-12-12T11:32:49.548Z,8592.00
2022-12-12T11:33:49.626Z,9436.00
2022-12-12T11:34:49.779Z,9380.00
2022-12-12T11:35:49.742Z,9568.00
2022-12-12T11:36:49.820Z,10516.00
2022-12-12T11:37:49.894Z,10584.00
2022-12-12T11:38:49.999Z,9660.00
2022-12-12T11:39:50.061Z,11192.00
2022-12-12T11:40:50.148Z,8380.00
2022-12-12T11:41:50.223Z,10488.00
2022-12-12T11:42:50.299Z,9708.00
2022-12-12T11:43:50.388Z,8908.00
2022-12-12T11:44:50.475Z,9080.00
2022-12-12T11:45:50.590Z,10456.00
2022-12-12T11:46:50.654Z,8552.00
2022-12-12T11:47:50.741Z,11732.00
2022-12-12T11:48:50.842Z,11240.00
2022-12-12T11:49:50.981Z,11976.00
2022-12-12T11:50:51.035Z,10140.00
2022-12-12T11:51:51.136Z,10272.00
2022-12-12T11:52:51.222Z,7804.00
2022-12-12T11:53:51.314Z,5564.00
2022-12-12T11:54:51.396Z,8272.00
2022-12-12T11:55:51.475Z,5116.00
2022-12-12T11:56:51.556Z,4272.00
2022-12-12T11:57:51.633Z,3412.00
2022-12-12T11:58:51.742Z,2892.00
2022-12-12T11:59:51.825Z,3348.00
2022-12-12T12:00:51.935Z,2752.00
2022-12-12T12:01:52.023Z,2008.00
2022-12-12T12:02:52.163Z,1716.00
2022-12-12T12:03:52.240Z,1764.00
2022-12-12T12:04:53.482Z,1700.00
2022-12-12T12:05:52.500Z,1576.00
2022-12-12T12:06:52.658Z,1584.00
2022-12-12T12:07:52.840Z,1532.00
2022-12-12T12:08:52.890Z,1336.00
2022-12-12T12:09:53.053Z,1212.00
2022-12-12T12:10:53.212Z,1244.00
2022-12-12T12:11:53.369Z,1384.00
2022-12-12T12:12:53.557Z,1636.00
2022-12-12T12:13:53.626Z,1508.00
2022-12-12T12:14:53.712Z,1580.00
2022-12-12T12:15:53.797Z,1620.00
2022-12-12T12:16:53.912Z,1772.00
2022-12-12T12:17:53.997Z,1532.00
2022-12-12T12:18:54.101Z,1288.00
2022-12-12T12:19:54.187Z,1324.00
2022-12-12T12:20:54.306Z,1164.00
2022-12-12T12:21:54.405Z,1400.00
2022-12-12T12:22:54.531Z,2360.00
2022-12-12T12:23:54.650Z,2624.00
2022-12-12T12:24:54.769Z,2864.00
2022-12-12T12:25:54.887Z,2700.00
2022-12-12T12:26:55.024Z,3352.00
2022-12-12T12:27:55.143Z,4088.00
2022-12-12T12:28:55.287Z,4540.00
2022-12-12T12:29:55.426Z,4172.00
2022-12-12T12:30:55.610Z,4432.00
2022-12-12T12:31:55.728Z,4604.00
2022-12-12T12:32:55.918Z,4444.00
2022-12-12T12:33:55.967Z,4132.00
2022-12-12T12:34:56.115Z,3944.00
2022-12-12T12:35:56.250Z,3956.00
2022-12-12T12:36:56.381Z,4528.00
2022-12-12T12:37:56.499Z,4232.00
2022-12-12T12:38:56.659Z,3416.00
2022-12-12T12:39:56.771Z,3384.00
2022-12-12T12:40:56.909Z,3552.00
2022-12-12T12:41:57.031Z,4084.00
2022-12-12T12:42:57.157Z,3804.00
2022-12-12T12:43:57.284Z,3700.00
2022-12-12T12:44:57.417Z,3440.00
2022-12-12T12:45:57.594Z,3068.00